createdAt,value
2018-04-30T05:13:49.147Z,36.9
2018-04-30T05:14:38.720Z,36.9
2018-04-30T05:15:29.563Z,36.9
2018-04-30T05:16:19.056Z,36.9
2018-04-30T05:17:09.769Z,36.9
2018-04-30T05:17:59.748Z,36.8
2018-04-30T05:18:49.533Z,36.8
2018-04-30T05:19:39.956Z,36.8
2018-04-30T05:20:29.374Z,36.8
2018-04-30T05:21:19.469Z,36.8
2018-04-30T05:22:09.513Z,36.8
2018-04-30T05:23:00.144Z,36.7
2018-04-30T05:23:50.177Z,36.7
2018-04-30T05:24:39.984Z,36.7
2018-04-30T05:25:30.389Z,36.7
2018-04-30T05:26:19.859Z,36.6
2018-04-30T05:27:10.466Z,36.6
2018-04-30T05:27:59.991Z,36.6
2018-04-30T05:28:50.693Z,36.6
2018-04-30T05:29:40.204Z,36.6
2018-04-30T05:30:30.721Z,36.6
2018-04-30T05:31:20.336Z,36.6
2018-04-30T05:32:10.685Z,36.6
2018-04-30T05:33:00.095Z,36.6
2018-04-30T05:33:51.405Z,36.5
2018-04-30T05:34:40.203Z,36.4
2018-04-30T05:35:30.645Z,36.4
2018-04-30T05:36:21.187Z,36.4
2018-04-30T05:37:10.958Z,35.9
2018-04-30T05:38:00.150Z,27.4
2018-04-30T05:38:50.538Z,31.3
2018-04-30T05:39:40.870Z,33.2
2018-04-30T05:40:30.636Z,31.8
2018-04-30T05:41:20.835Z,30.9
2018-04-30T05:42:11.376Z,30.3
2018-04-30T05:43:01.155Z,30.1
2018-04-30T05:43:51.502Z,29.9
2018-04-30T05:44:40.993Z,29.9
2018-04-30T05:45:31.041Z,29.9
2018-04-30T05:46:20.835Z,30.1
2018-04-30T05:47:10.873Z,30.4
2018-04-30T05:48:01.886Z,30.7
2018-04-30T05:48:51.306Z,31
2018-04-30T05:49:41.445Z,31.3
2018-04-30T05:50:31.591Z,31.6
2018-04-30T05:51:21.504Z,31.9
2018-04-30T05:52:11.872Z,32.1
2018-04-30T05:53:01.884Z,32.4
2018-04-30T05:53:51.963Z,32.6
2018-04-30T05:54:42.313Z,31.6
2018-04-30T05:55:32.397Z,30.9
2018-04-30T05:56:22.155Z,34.3
2018-04-30T05:57:12.775Z,35.4
2018-04-30T05:58:02.552Z,34.9
2018-04-30T05:58:52.889Z,34.2
2018-04-30T05:59:42.948Z,33.9
2018-04-30T06:00:33.584Z,34.1
2018-04-30T06:01:22.617Z,34.6
2018-04-30T06:02:12.592Z,35
2018-04-30T06:03:02.965Z,35.2
2018-04-30T06:03:53.297Z,35.3
2018-04-30T06:04:42.502Z,35.3
2018-04-30T06:05:33.132Z,35.3
2018-04-30T06:06:22.936Z,35.3
2018-04-30T06:07:12.467Z,35.3
2018-04-30T06:08:03.350Z,35.1
2018-04-30T06:08:53.159Z,35.1
2018-04-30T06:09:43.474Z,35.1
2018-04-30T06:10:33.502Z,35.2
2018-04-30T06:11:23.645Z,35.3
2018-04-30T06:12:14.015Z,35.4
2018-04-30T06:13:03.740Z,35.5
2018-04-30T06:13:54.069Z,35.7
2018-04-30T06:14:44.115Z,35.8
2018-04-30T06:15:34.194Z,36
2018-04-30T06:16:23.691Z,36.2
2018-04-30T06:17:14.302Z,36.4
2018-04-30T06:18:03.858Z,36.5
2018-04-30T06:18:53.864Z,36.7
2018-04-30T06:19:44.576Z,36.9
2018-04-30T06:20:34.545Z,37.1
2018-04-30T06:21:24.052Z,37.3
2018-04-30T06:22:14.702Z,37.5
2018-04-30T06:23:04.207Z,37.6
2018-04-30T06:23:54.608Z,37.8
2018-04-30T06:24:44.928Z,37.8
2018-04-30T06:25:34.951Z,37.9
2018-04-30T06:26:25.033Z,37.9
2018-04-30T06:27:14.048Z,37.9
2018-04-30T06:28:04.592Z,37.9
2018-04-30T06:28:54.967Z,37.9
2018-04-30T06:29:44.712Z,37.8
2018-04-30T06:30:35.053Z,37.8
2018-04-30T06:31:24.288Z,37.7
2018-04-30T06:32:15.207Z,37.7
2018-04-30T06:33:05.254Z,37.6
2018-04-30T06:33:55.599Z,37.6
2018-04-30T06:34:44.853Z,37.8
2018-04-30T06:35:35.698Z,37.9
2018-04-30T06:36:25.253Z,38.2
2018-04-30T06:37:15.277Z,38.5
2018-04-30T06:38:05.928Z,38.9
2018-04-30T06:38:55.740Z,39.4
2018-04-30T06:39:45.759Z,39.8
2018-04-30T06:40:35.562Z,40.2
2018-04-30T06:41:26.161Z,40.6
2018-04-30T06:42:15.659Z,40.9
2018-04-30T06:43:06.013Z,41.2
2018-04-30T06:43:55.589Z,41.5
2018-04-30T06:44:46.416Z,41.8
2018-04-30T06:45:35.336Z,42.1
2018-04-30T06:46:26.016Z,42.3
2018-04-30T06:47:16.366Z,42.5
2018-04-30T06:48:06.722Z,42.6
2018-04-30T06:48:56.278Z,42.7
2018-04-30T06:49:46.853Z,42.8
2018-04-30T06:50:36.159Z,42.8
2018-04-30T06:51:26.404Z,42.9
2018-04-30T06:52:16.766Z,43.1
2018-04-30T06:53:06.515Z,43.3
2018-04-30T06:53:56.876Z,43.5
2018-04-30T06:54:46.931Z,43.8
2018-04-30T06:55:36.781Z,43.9
2018-04-30T06:56:27.357Z,44.1
2018-04-30T06:57:16.609Z,44.2
2018-04-30T06:58:06.696Z,44.3
2018-04-30T06:58:56.828Z,44.4
2018-04-30T06:59:46.542Z,44.4
2018-04-30T07:00:36.895Z,44.4
2018-04-30T07:01:27.138Z,44.4
2018-04-30T07:02:17.512Z,44.4
2018-04-30T07:03:07.859Z,44.3
2018-04-30T07:03:57.700Z,44.1
2018-04-30T07:04:47.437Z,43.9
2018-04-30T07:05:37.484Z,43.8
2018-04-30T07:06:28.170Z,43.8
2018-04-30T07:07:17.655Z,43.8
2018-04-30T07:08:07.703Z,44
2018-04-30T07:08:58.306Z,44.1
2018-04-30T07:09:48.502Z,44.3
2018-04-30T07:10:38.167Z,44.5
2018-04-30T07:11:28.511Z,44.8
2018-04-30T07:12:18.309Z,45.2
2018-04-30T07:13:08.385Z,45.6
2018-04-30T07:13:58.742Z,45.9
2018-04-30T07:14:47.946Z,46.3
2018-04-30T07:15:38.843Z,46.6
2018-04-30T07:16:28.986Z,46.8
2018-04-30T07:17:18.484Z,47
2018-04-30T07:18:08.334Z,47.3
2018-04-30T07:18:58.541Z,47.5
2018-04-30T07:19:48.733Z,47.8
2018-04-30T07:20:39.204Z,47.9
2018-04-30T07:21:28.986Z,48
2018-04-30T07:22:18.807Z,48
2018-04-30T07:23:09.180Z,47.9
2018-04-30T07:23:59.215Z,47.9
2018-04-30T07:24:49.029Z,47.8
2018-04-30T07:25:39.337Z,47.6
2018-04-30T07:26:28.838Z,47.6
2018-04-30T07:27:19.747Z,47.4
2018-04-30T07:28:09.551Z,47.2
2018-04-30T07:28:59.041Z,46.9
2018-04-30T07:29:49.988Z,46.8
2018-04-30T07:30:39.735Z,46.7
2018-04-30T07:31:30.113Z,46.6
2018-04-30T07:32:20.172Z,46.5
2018-04-30T07:33:10.109Z,46.3
2018-04-30T07:33:59.523Z,46.1
2018-04-30T07:34:49.792Z,45.9
2018-04-30T07:35:40.212Z,45.8
2018-04-30T07:36:29.990Z,45.6
2018-04-30T07:37:20.248Z,45.4
2018-04-30T07:38:10.295Z,45.3
2018-04-30T07:39:00.249Z,45.2
2018-04-30T07:39:50.770Z,45.1
2018-04-30T07:40:39.674Z,44.9
2018-04-30T07:41:30.877Z,44.9
2018-04-30T07:42:20.401Z,44.8
2018-04-30T07:43:10.160Z,44.8
2018-04-30T07:44:01.066Z,44.7
2018-04-30T07:44:50.562Z,44.7
2018-04-30T07:45:40.363Z,44.7
2018-04-30T07:46:30.988Z,44.8
2018-04-30T07:47:20.761Z,44.9
2018-04-30T07:48:11.104Z,45.3
2018-04-30T07:49:00.620Z,45.9
2018-04-30T07:49:50.950Z,46.7
2018-04-30T07:50:41.661Z,47.6
2018-04-30T07:51:31.631Z,48.4
2018-04-30T07:52:21.189Z,49.1
2018-04-30T07:53:10.979Z,49.6
2018-04-30T07:54:01.829Z,50.1
2018-04-30T07:54:50.875Z,50.5
2018-04-30T07:55:41.983Z,50.9
2018-04-30T07:56:32.030Z,51.3
2018-04-30T07:57:22.737Z,51.7
2018-04-30T07:58:12.234Z,52.1
2018-04-30T07:59:01.677Z,52.3
2018-04-30T07:59:51.817Z,52.5
2018-04-30T08:00:41.819Z,52.8
2018-04-30T08:01:32.191Z,52.9
2018-04-30T08:02:21.990Z,53.1
2018-04-30T08:03:13.314Z,53.3
2018-04-30T08:04:02.631Z,53.5
2018-04-30T08:04:52.411Z,53.6
2018-04-30T08:05:42.465Z,53.8
2018-04-30T08:06:32.797Z,54
2018-04-30T08:07:22.632Z,54.2
2018-04-30T08:08:12.659Z,54.4
2018-04-30T08:09:02.976Z,54.6
2018-04-30T08:09:52.562Z,54.9
2018-04-30T08:10:42.862Z,55.1
2018-04-30T08:11:32.941Z,55.3
2018-04-30T08:12:22.446Z,55.4
2018-04-30T08:13:13.143Z,55.6
2018-04-30T08:14:03.154Z,55.6
2018-04-30T08:14:53.565Z,55.8
2018-04-30T08:15:43.349Z,55.9
2018-04-30T08:16:33.315Z,56.1
2018-04-30T08:17:23.151Z,56.2
2018-04-30T08:18:13.205Z,56.3
2018-04-30T08:19:02.975Z,56.4
2018-04-30T08:19:53.901Z,56.4
2018-04-30T08:20:42.896Z,56.4
2018-04-30T08:21:33.602Z,56.2
2018-04-30T08:22:23.630Z,55.9
2018-04-30T08:23:13.897Z,55.8
2018-04-30T08:24:03.917Z,55.6
2018-04-30T08:24:54.000Z,55.5
2018-04-30T08:25:44.081Z,55.4
2018-04-30T08:26:33.319Z,55.3
2018-04-30T08:27:24.466Z,55.1
2018-04-30T08:28:14.522Z,54.9
2018-04-30T08:29:04.327Z,54.7
2018-04-30T08:29:54.444Z,54.5
2018-04-30T08:30:44.159Z,54.4
2018-04-30T08:31:34.509Z,54.3
2018-04-30T08:32:24.400Z,54.3
2018-04-30T08:33:14.073Z,54.4
2018-04-30T08:34:04.454Z,54.6
2018-04-30T08:34:54.294Z,54.9
2018-04-30T08:35:44.409Z,55.4
2018-04-30T08:36:35.641Z,55.8
2018-04-30T08:37:25.257Z,56.1
2018-04-30T08:38:14.627Z,56.4
2018-04-30T08:39:05.472Z,56.8
2018-04-30T08:39:54.937Z,57.1
2018-04-30T08:40:44.959Z,57.5
2018-04-30T08:41:35.101Z,57.8
2018-04-30T08:42:25.099Z,58.2
2018-04-30T08:43:15.502Z,58.4
2018-04-30T08:44:05.508Z,58.8
2018-04-30T08:44:55.299Z,59.1
2018-04-30T08:45:45.359Z,59.3
2018-04-30T08:46:35.430Z,59.6
2018-04-30T08:47:26.066Z,59.8
2018-04-30T08:48:15.571Z,60.1
2018-04-30T08:49:06.183Z,60.3
2018-04-30T08:49:56.237Z,60.5
2018-04-30T08:50:46.029Z,60.6
2018-04-30T08:51:35.526Z,60.9
2018-04-30T08:52:26.446Z,61.1
2018-04-30T08:53:15.519Z,61.3
2018-04-30T08:54:05.947Z,61.4
2018-04-30T08:54:54.786Z,61.6
2018-04-30T08:55:45.988Z,61.8
2018-04-30T08:56:35.759Z,61.9
2018-04-30T08:57:25.536Z,62.1
2018-04-30T08:58:16.386Z,62.3
2018-04-30T08:59:07.089Z,62.4
2018-04-30T08:59:56.742Z,62.6
2018-04-30T09:00:46.905Z,62.8
2018-04-30T09:01:36.342Z,63
2018-04-30T09:02:26.674Z,63.2
2018-04-30T09:03:17.299Z,63.3
2018-04-30T09:04:07.080Z,63.5
2018-04-30T09:04:57.402Z,63.6
2018-04-30T09:05:47.509Z,63.8
2018-04-30T09:06:37.653Z,63.9
2018-04-30T09:07:27.166Z,64.1
2018-04-30T09:08:17.170Z,64.3
2018-04-30T09:09:07.231Z,64.4
2018-04-30T09:09:57.820Z,64.6
2018-04-30T09:10:47.949Z,64.8
2018-04-30T09:11:37.419Z,64.9
2018-04-30T09:12:27.759Z,65.1
2018-04-30T09:13:17.843Z,65.2
2018-04-30T09:14:07.660Z,65.3
2018-04-30T09:14:58.525Z,65.5
2018-04-30T09:15:48.314Z,65.6
2018-04-30T09:16:38.393Z,65.8
2018-04-30T09:17:28.143Z,65.9
2018-04-30T09:18:18.238Z,66.1
2018-04-30T09:19:07.995Z,66.3
2018-04-30T09:19:58.033Z,66.5
2018-04-30T09:20:48.693Z,66.6
2018-04-30T09:21:38.735Z,66.8
2018-04-30T09:22:28.824Z,66.9
2018-04-30T09:23:18.012Z,67
2018-04-30T09:24:08.956Z,67.1
2018-04-30T09:24:59.096Z,67.3
2018-04-30T09:25:48.531Z,67.5
2018-04-30T09:26:38.843Z,67.6
2018-04-30T09:27:29.282Z,67.6
2018-04-30T09:28:19.816Z,67.8
2018-04-30T09:29:10.319Z,68.1
2018-04-30T09:29:59.390Z,68.3
2018-04-30T09:30:49.220Z,68.6
2018-04-30T09:31:39.287Z,68.7
2018-04-30T09:32:29.312Z,68.8
2018-04-30T09:33:19.138Z,68.9
2018-04-30T09:34:09.468Z,69
2018-04-30T09:34:58.866Z,69.1
2018-04-30T09:35:48.749Z,69.3
2018-04-30T09:36:39.963Z,69.4
2018-04-30T09:37:29.821Z,69.6
2018-04-30T09:38:19.334Z,69.7
2018-04-30T09:39:09.570Z,69.8
2018-04-30T09:40:00.197Z,69.9
2018-04-30T09:40:50.300Z,69.8
2018-04-30T09:41:39.492Z,69.7
2018-04-30T09:42:30.381Z,69.7
2018-04-30T09:43:20.210Z,69.8
2018-04-30T09:44:09.996Z,69.7
2018-04-30T09:45:00.314Z,69.4
2018-04-30T09:45:50.399Z,69.3
2018-04-30T09:46:40.449Z,69.1
2018-04-30T09:47:30.543Z,69.1
2018-04-30T09:48:20.590Z,69.1
2018-04-30T09:49:10.221Z,69
2018-04-30T09:50:00.717Z,68.8
2018-04-30T09:50:50.787Z,68.6
2018-04-30T09:51:40.859Z,68.8
2018-04-30T09:52:29.504Z,69.1
2018-04-30T09:53:21.274Z,69.4
2018-04-30T09:54:11.294Z,69.6
2018-04-30T09:55:01.114Z,69.5
2018-04-30T09:55:51.469Z,69.4
2018-04-30T09:56:41.256Z,69.4
2018-04-30T09:57:31.607Z,69.6
2018-04-30T09:58:21.725Z,69.7
2018-04-30T09:59:11.184Z,69.7
2018-04-30T10:00:01.312Z,69.4
2018-04-30T10:00:51.840Z,68.9
2018-04-30T10:01:41.356Z,68.4
2018-04-30T10:02:32.060Z,68.1
2018-04-30T10:03:22.108Z,67.9
2018-04-30T10:04:11.674Z,68.1
2018-04-30T10:05:02.195Z,68.4
2018-04-30T10:05:51.724Z,68.6
2018-04-30T10:06:42.061Z,68.6
2018-04-30T10:07:31.965Z,68.2
2018-04-30T10:08:22.203Z,67.7
2018-04-30T10:09:11.696Z,67.3
2018-04-30T10:10:02.322Z,66.9
2018-04-30T10:10:52.667Z,66.6
2018-04-30T10:11:42.471Z,66.4
2018-04-30T10:12:31.964Z,66.3
2018-04-30T10:13:22.592Z,66.2
2018-04-30T10:14:12.390Z,66.1
2018-04-30T10:15:02.519Z,66.3
2018-04-30T10:15:51.995Z,66.7
2018-04-30T10:16:42.610Z,67.1
2018-04-30T10:17:32.956Z,67.6
2018-04-30T10:18:23.380Z,67.8
2018-04-30T10:19:13.089Z,67.8
2018-04-30T10:20:01.799Z,67.6
2018-04-30T10:20:53.222Z,67.4
2018-04-30T10:21:43.625Z,67.3
2018-04-30T10:22:32.763Z,67.3
2018-04-30T10:23:24.213Z,67.3
2018-04-30T10:24:13.158Z,67.4
2018-04-30T10:25:02.459Z,67.8
2018-04-30T10:25:53.648Z,68.1
2018-04-30T10:26:43.670Z,68.4
2018-04-30T10:27:33.335Z,68.5
2018-04-30T10:28:23.483Z,68.6
2018-04-30T10:29:14.579Z,68.5
2018-04-30T10:30:03.725Z,68.6
2018-04-30T10:30:54.257Z,68.8
2018-04-30T10:31:45.336Z,69.2
2018-04-30T10:32:34.137Z,69.3
2018-04-30T10:33:23.902Z,69.1
2018-04-30T10:34:14.237Z,68.9
2018-04-30T10:35:04.060Z,68.8
2018-04-30T10:35:54.150Z,68.9
2018-04-30T10:36:44.203Z,69.1
2018-04-30T10:37:34.486Z,69.4
2018-04-30T10:38:24.613Z,69.6
2018-04-30T10:39:14.400Z,69.7
2018-04-30T10:40:04.718Z,69.8
2018-04-30T10:40:54.766Z,70
2018-04-30T10:41:45.124Z,70.2
2018-04-30T10:42:34.922Z,70.5
2018-04-30T10:43:24.426Z,70.6
2018-04-30T10:44:15.044Z,70.7
2018-04-30T10:45:05.390Z,70.7
2018-04-30T10:45:56.413Z,70.6
2018-04-30T10:46:44.965Z,70.4
2018-04-30T10:47:35.052Z,69.9
2018-04-30T10:48:25.638Z,69.4
2018-04-30T10:49:15.238Z,69.2
2018-04-30T10:50:04.681Z,69.4
2018-04-30T10:50:55.007Z,69.5
2018-04-30T10:51:46.095Z,69.4
2018-04-30T10:52:35.113Z,68.9
2018-04-30T10:53:26.049Z,68.5
2018-04-30T10:54:15.816Z,68.3
2018-04-30T10:55:05.914Z,68.4
2018-04-30T10:55:55.447Z,68.6
2018-04-30T10:56:46.015Z,68.4
2018-04-30T10:57:35.838Z,68.1
2018-04-30T10:58:26.005Z,67.8
2018-04-30T10:59:15.485Z,67.4
2018-04-30T11:00:05.747Z,67.4
2018-04-30T11:00:56.074Z,67.5
2018-04-30T11:01:45.628Z,67.7
2018-04-30T11:02:37.154Z,67.9
2018-04-30T11:03:26.567Z,67.8
2018-04-30T11:04:16.454Z,67.6
2018-04-30T11:05:06.166Z,67.4
2018-04-30T11:05:56.301Z,67.3
2018-04-30T11:06:46.635Z,67.2
2018-04-30T11:07:36.606Z,67.2
2018-04-30T11:08:27.271Z,67.4
2018-04-30T11:09:16.758Z,67.7
2018-04-30T11:10:06.841Z,68.1
2018-04-30T11:10:56.676Z,68.3
2018-04-30T11:11:46.957Z,68.4
2018-04-30T11:12:37.406Z,68.4
2018-04-30T11:13:26.535Z,68.2
2018-04-30T11:14:17.699Z,67.9
2018-04-30T11:15:07.782Z,67.8
2018-04-30T11:15:57.813Z,67.8
2018-04-30T11:16:47.322Z,67.9
2018-04-30T11:17:37.952Z,67.9
2018-04-30T11:18:27.737Z,67.6
2018-04-30T11:19:17.562Z,67.4
2018-04-30T11:20:07.636Z,67.5
2018-04-30T11:20:57.926Z,67.4
2018-04-30T11:21:48.014Z,67.3
2018-04-30T11:22:38.409Z,67
2018-04-30T11:23:27.919Z,66.8
2018-04-30T11:24:18.246Z,66.6
2018-04-30T11:25:08.563Z,66.6
2018-04-30T11:25:58.057Z,66.7
2018-04-30T11:26:48.135Z,66.9
2018-04-30T11:27:39.337Z,67.1
2018-04-30T11:28:28.288Z,67.1
2018-04-30T11:29:18.909Z,67
2018-04-30T11:30:08.140Z,67
2018-04-30T11:30:59.023Z,67
2018-04-30T11:31:48.242Z,67.1
2018-04-30T11:32:38.398Z,67.1
2018-04-30T11:33:28.735Z,67.2
2018-04-30T11:34:18.693Z,67.3
2018-04-30T11:35:09.485Z,67.4
2018-04-30T11:35:59.251Z,67.6
2018-04-30T11:36:49.357Z,67.8
2018-04-30T11:37:39.652Z,68.1
2018-04-30T11:38:29.413Z,68.4
2018-04-30T11:39:19.309Z,68.8
2018-04-30T11:40:10.070Z,69.1
2018-04-30T11:40:59.694Z,69.2
2018-04-30T11:41:49.693Z,69.2
2018-04-30T11:42:39.727Z,69
2018-04-30T11:43:29.828Z,69.1
2018-04-30T11:44:20.757Z,69.1
2018-04-30T11:45:10.005Z,69.1
2018-04-30T11:46:00.320Z,69.1
2018-04-30T11:46:50.124Z,68.9
2018-04-30T11:47:41.514Z,68.8
2018-04-30T11:48:29.366Z,68.4
2018-04-30T11:49:20.033Z,68.2
2018-04-30T11:50:10.378Z,67.9
2018-04-30T11:51:02.963Z,67.8
2018-04-30T11:51:49.721Z,67.8
2018-04-30T11:52:40.815Z,67.8
2018-04-30T11:53:29.759Z,68
2018-04-30T11:54:21.555Z,68.1
2018-04-30T11:55:10.778Z,67.9
2018-04-30T11:56:00.873Z,67.6
2018-04-30T11:56:50.625Z,67.3
2018-04-30T11:57:42.102Z,67.1
2018-04-30T11:58:31.301Z,67.1
2018-04-30T11:59:20.507Z,67.3
2018-04-30T12:00:10.571Z,67.3
2018-04-30T12:01:01.554Z,67.4
2018-04-30T12:01:50.701Z,67.4
2018-04-30T12:02:40.768Z,67.3
2018-04-30T12:03:30.877Z,67.3
2018-04-30T12:04:21.255Z,67.3
2018-04-30T12:05:11.257Z,67.3
2018-04-30T12:06:01.328Z,67.1
2018-04-30T12:06:51.183Z,67
2018-04-30T12:07:42.084Z,66.9
2018-04-30T12:08:31.873Z,66.8
2018-04-30T12:09:21.312Z,66.8
2018-04-30T12:10:12.455Z,66.7
2018-04-30T12:11:03.088Z,66.6
2018-04-30T12:11:52.408Z,66.4
2018-04-30T12:12:41.846Z,66.3
2018-04-30T12:13:33.470Z,66.3
2018-04-30T12:14:21.693Z,66.3
2018-04-30T12:15:12.677Z,66.2
2018-04-30T12:16:02.371Z,66.1
2018-04-30T12:16:54.528Z,66.1
2018-04-30T12:17:41.814Z,66
2018-04-30T12:18:32.689Z,65.9
2018-04-30T12:19:22.206Z,65.8
2018-04-30T12:20:13.856Z,65.8
2018-04-30T12:21:02.369Z,65.9
2018-04-30T12:21:53.109Z,65.9
2018-04-30T12:22:43.019Z,65.9
2018-04-30T12:23:34.771Z,65.9
2018-04-30T12:24:22.771Z,65.9
2018-04-30T12:25:13.447Z,65.9
2018-04-30T12:26:03.207Z,65.9
2018-04-30T12:26:52.117Z,65.9
2018-04-30T12:27:42.839Z,65.8
2018-04-30T12:28:33.413Z,65.6
2018-04-30T12:29:23.759Z,65.4
2018-04-30T12:30:13.536Z,65.3
2018-04-30T12:31:03.596Z,65.1
2018-04-30T12:31:53.656Z,65
2018-04-30T12:32:43.889Z,64.8
2018-04-30T12:33:35.697Z,64.7
2018-04-30T12:34:23.845Z,64.5
2018-04-30T12:35:13.940Z,64.4
2018-04-30T12:36:04.814Z,64.3
2018-04-30T12:36:54.085Z,64.3
2018-04-30T12:37:44.186Z,64.2
2018-04-30T12:38:34.080Z,64.1
2018-04-30T12:39:25.527Z,64
2018-04-30T12:40:14.112Z,63.9
2018-04-30T12:41:04.653Z,63.8
2018-04-30T12:41:54.201Z,63.8
2018-04-30T12:42:46.207Z,63.7
2018-04-30T12:43:34.893Z,63.6
2018-04-30T12:44:24.185Z,63.6
2018-04-30T12:45:14.744Z,63.6
2018-04-30T12:46:07.547Z,63.6
2018-04-30T12:46:55.163Z,63.5
2018-04-30T12:47:45.029Z,63.4
2018-04-30T12:48:35.067Z,63.3
2018-04-30T12:49:28.490Z,63.1
2018-04-30T12:50:15.405Z,63
2018-04-30T12:51:04.920Z,62.9
2018-04-30T12:51:55.285Z,62.8
2018-04-30T12:52:45.260Z,62.6
2018-04-30T12:53:35.369Z,62.4
2018-04-30T12:54:25.461Z,62.3
2018-04-30T12:55:15.545Z,62.1
2018-04-30T12:56:07.597Z,61.9
2018-04-30T12:56:55.662Z,61.8
2018-04-30T12:57:45.435Z,61.6
2018-04-30T12:58:35.844Z,61.5
2018-04-30T12:59:25.609Z,61.4
2018-04-30T13:00:15.636Z,61.3
2018-04-30T13:01:06.299Z,61.1
2018-04-30T13:01:59.609Z,61
2018-04-30T13:02:46.145Z,60.9
2018-04-30T13:03:35.887Z,60.8
2018-04-30T13:04:25.149Z,60.6
2018-04-30T13:05:17.269Z,60.5
2018-04-30T13:06:06.772Z,60.4
2018-04-30T13:06:55.954Z,60.3
2018-04-30T13:07:45.684Z,60
2018-04-30T13:08:36.311Z,59.5
2018-04-30T13:09:26.385Z,58.9
2018-04-30T13:10:16.415Z,58.3
2018-04-30T13:11:56.252Z,57.3
2018-04-30T13:12:46.033Z,56.8
2018-04-30T13:13:37.353Z,56.3
2018-04-30T13:14:30.689Z,55.9
2018-04-30T13:15:16.995Z,55.4
2018-04-30T13:16:06.897Z,55.1
2018-04-30T13:16:57.499Z,54.8
2018-04-30T13:17:47.269Z,54.6
2018-04-30T13:18:37.084Z,54.3
2018-04-30T13:19:27.159Z,54.1
2018-04-30T13:20:16.925Z,53.9
2018-04-30T13:21:07.308Z,53.8
2018-04-30T13:21:57.395Z,53.6
2018-04-30T13:22:47.218Z,53.4
2018-04-30T13:23:38.052Z,53.2
2018-04-30T13:24:28.040Z,53
2018-04-30T13:25:17.607Z,52.9
2018-04-30T13:26:07.738Z,52.7
2018-04-30T13:26:57.147Z,52.6
2018-04-30T13:27:47.453Z,52.4
2018-04-30T13:28:38.967Z,52.3
2018-04-30T13:29:27.894Z,52.1
2018-04-30T13:30:18.489Z,52.1
2018-04-30T13:31:58.359Z,51.8
2018-04-30T13:32:48.470Z,51.7
2018-04-30T13:33:38.172Z,51.6
2018-04-30T13:34:28.554Z,51.5
2018-04-30T13:35:18.431Z,51.4
2018-04-30T13:36:08.112Z,51.3
2018-04-30T13:36:58.174Z,51.2
2018-04-30T13:37:49.076Z,51.1
2018-04-30T13:38:38.406Z,51.1
2018-04-30T13:39:28.644Z,50.9
2018-04-30T13:40:18.999Z,50.9
2018-04-30T13:41:09.351Z,50.8
2018-04-30T13:41:59.405Z,50.8
2018-04-30T13:42:49.495Z,50.7
2018-04-30T13:43:39.469Z,50.6
2018-04-30T13:44:29.319Z,50.6
2018-04-30T13:45:19.405Z,50.5
2018-04-30T13:46:09.173Z,50.4
2018-04-30T13:46:59.839Z,50.4
2018-04-30T13:47:49.551Z,50.3
2018-04-30T13:48:39.965Z,50.3
2018-04-30T13:49:29.728Z,50.2
2018-04-30T13:50:20.045Z,50.1
2018-04-30T13:51:09.578Z,50.1
2018-04-30T13:52:00.210Z,50.1
2018-04-30T13:52:49.447Z,50
2018-04-30T13:53:40.356Z,50
2018-04-30T13:54:29.927Z,49.9
2018-04-30T13:55:20.169Z,49.9
2018-04-30T13:56:09.685Z,49.9
2018-04-30T13:57:00.630Z,49.8
2018-04-30T13:57:50.715Z,49.8
2018-04-30T13:58:40.478Z,49.8
2018-04-30T13:59:29.723Z,49.7
2018-04-30T14:00:20.840Z,49.6
2018-04-30T14:01:09.510Z,49.6
2018-04-30T14:02:01.416Z,49.6
2018-04-30T14:02:50.775Z,49.5
2018-04-30T14:03:41.205Z,49.5
2018-04-30T14:04:30.924Z,49.5
2018-04-30T14:05:20.392Z,49.4
2018-04-30T14:06:11.330Z,49.4
2018-04-30T14:07:01.192Z,49.4
2018-04-30T14:07:50.594Z,49.4
2018-04-30T14:08:41.242Z,49.3
2018-04-30T14:09:31.454Z,49.3
2018-04-30T14:10:20.267Z,49.3
2018-04-30T14:11:11.149Z,49.2
2018-04-30T14:12:01.489Z,49.2
2018-04-30T14:12:51.572Z,49.1
2018-04-30T14:13:41.991Z,49.1
2018-04-30T14:14:31.974Z,49.1
2018-04-30T14:15:21.472Z,49.1
2018-04-30T14:16:12.511Z,49.1
2018-04-30T14:17:01.916Z,49
2018-04-30T14:17:52.207Z,49
2018-04-30T14:18:42.275Z,48.9
2018-04-30T14:19:32.109Z,48.9
2018-04-30T14:20:21.604Z,48.9
2018-04-30T14:21:12.250Z,48.9
2018-04-30T14:22:02.309Z,48.9
2018-04-30T14:22:52.359Z,48.9
2018-04-30T14:23:42.410Z,48.8
2018-04-30T14:24:32.192Z,48.9
2018-04-30T14:25:22.000Z,48.8
2018-04-30T14:26:12.359Z,48.8
2018-04-30T14:27:01.834Z,48.8
2018-04-30T14:27:52.751Z,48.7
2018-04-30T14:28:42.809Z,48.7
2018-04-30T14:29:32.325Z,48.6
2018-04-30T14:30:22.369Z,48.6
2018-04-30T14:31:11.334Z,48.6
2018-04-30T14:32:03.076Z,48.6
2018-04-30T14:32:52.601Z,48.6
2018-04-30T14:33:42.741Z,48.5
2018-04-30T14:34:32.411Z,48.5
2018-04-30T14:35:23.371Z,48.4
2018-04-30T14:36:13.712Z,48.4
2018-04-30T14:37:03.531Z,48.4
2018-04-30T14:37:53.576Z,48.4
2018-04-30T14:38:43.616Z,48.3
2018-04-30T14:39:33.769Z,48.3
2018-04-30T14:40:23.761Z,48.3
2018-04-30T14:41:13.248Z,48.3
2018-04-30T14:42:04.181Z,48.3
2018-04-30T14:42:53.963Z,48.2
2018-04-30T14:43:43.997Z,48.2
2018-04-30T14:44:35.278Z,48.1
2018-04-30T14:45:23.576Z,48.1
2018-04-30T14:46:14.169Z,48.1
2018-04-30T14:47:04.578Z,48.1
2018-04-30T14:47:54.592Z,48
2018-04-30T14:48:44.114Z,48
2018-04-30T14:49:34.449Z,48
2018-04-30T14:50:24.294Z,47.9
2018-04-30T14:51:14.846Z,47.9
2018-04-30T14:52:04.076Z,47.9
2018-04-30T14:52:54.412Z,47.9
2018-04-30T14:53:45.049Z,47.9
2018-04-30T14:54:34.867Z,47.8
2018-04-30T14:55:23.775Z,47.8
2018-04-30T14:56:14.988Z,47.8
2018-04-30T14:57:04.881Z,47.8
2018-04-30T14:57:54.809Z,47.8
2018-04-30T14:58:44.865Z,47.7
2018-04-30T14:59:35.219Z,47.7
2018-04-30T15:00:25.321Z,47.6
2018-04-30T15:01:14.806Z,47.6
2018-04-30T15:02:05.722Z,47.6
2018-04-30T15:02:54.928Z,47.6
2018-04-30T15:03:45.825Z,47.6
2018-04-30T15:04:35.634Z,47.5
2018-04-30T15:05:25.390Z,47.5
2018-04-30T15:06:15.872Z,47.5
2018-04-30T15:07:05.029Z,47.4
2018-04-30T15:07:55.899Z,47.4
2018-04-30T15:08:46.239Z,47.4
2018-04-30T15:09:35.456Z,47.4
2018-04-30T15:10:26.091Z,47.4
2018-04-30T15:11:15.954Z,47.4
2018-04-30T15:12:06.193Z,47.3
2018-04-30T15:12:56.013Z,47.3
2018-04-30T15:13:46.048Z,47.3
2018-04-30T15:14:36.496Z,47.3
2018-04-30T15:15:25.740Z,47.3
2018-04-30T15:16:15.972Z,47.3
2018-04-30T15:17:05.791Z,47.2
2018-04-30T15:17:56.709Z,47.2
2018-04-30T15:18:46.457Z,47.2
2018-04-30T15:19:36.946Z,47.2
2018-04-30T15:20:25.824Z,47.1
2018-04-30T15:21:16.655Z,47.1
2018-04-30T15:22:06.424Z,47.1
2018-04-30T15:22:57.047Z,47.1
2018-04-30T15:23:47.410Z,47.1
2018-04-30T15:24:36.938Z,47.1
2018-04-30T15:25:27.001Z,47.1
2018-04-30T15:26:17.046Z,47
2018-04-30T15:27:07.185Z,47
2018-04-30T15:27:57.179Z,47
2018-04-30T15:28:46.950Z,46.9
2018-04-30T15:29:36.992Z,46.9
2018-04-30T15:30:27.629Z,46.9
2018-04-30T15:31:17.733Z,46.9
2018-04-30T15:32:07.797Z,46.9
2018-04-30T15:32:57.853Z,46.9
2018-04-30T15:33:47.698Z,46.9
2018-04-30T15:34:38.251Z,46.9
2018-04-30T15:35:27.774Z,46.9
2018-04-30T15:36:18.491Z,46.8
2018-04-30T15:37:08.425Z,46.8
2018-04-30T15:37:58.229Z,46.8
2018-04-30T15:38:48.032Z,46.8
2018-04-30T15:39:38.658Z,46.8
2018-04-30T15:40:28.164Z,46.8
2018-04-30T15:41:17.957Z,46.8
2018-04-30T15:42:08.943Z,46.8
2018-04-30T15:42:58.925Z,46.8
2018-04-30T15:43:47.846Z,46.8
2018-04-30T15:44:38.486Z,46.7
2018-04-30T15:45:28.246Z,46.7
2018-04-30T15:46:18.888Z,46.7
2018-04-30T15:47:09.216Z,46.7
2018-04-30T15:47:59.066Z,46.6
2018-04-30T15:48:49.153Z,46.6
2018-04-30T15:49:38.612Z,46.6
2018-04-30T15:50:28.949Z,46.6
2018-04-30T15:51:19.666Z,46.6
2018-04-30T15:52:09.370Z,46.6
2018-04-30T15:52:58.875Z,46.6
2018-04-30T15:53:49.193Z,46.6
2018-04-30T15:54:39.052Z,46.6
2018-04-30T15:55:29.038Z,46.5
2018-04-30T15:56:19.960Z,46.6
2018-04-30T15:57:09.475Z,46.5
2018-04-30T15:58:00.455Z,46.5
2018-04-30T15:58:49.615Z,46.5
2018-04-30T15:59:39.949Z,46.5
2018-04-30T16:00:29.705Z,46.5
2018-04-30T16:01:20.129Z,46.4
2018-04-30T16:02:09.897Z,46.4
2018-04-30T16:03:00.455Z,46.4
2018-04-30T16:03:50.284Z,46.4
2018-04-30T16:04:40.070Z,46.4
2018-04-30T16:05:29.535Z,46.4
2018-04-30T16:06:20.542Z,46.4
2018-04-30T16:07:10.571Z,46.4
2018-04-30T16:08:00.619Z,46.4
2018-04-30T16:08:50.067Z,46.4
2018-04-30T16:09:40.432Z,46.4
2018-04-30T16:10:30.244Z,46.4
2018-04-30T16:11:20.303Z,46.3
2018-04-30T16:12:10.629Z,46.3
2018-04-30T16:13:01.097Z,46.3
2018-04-30T16:13:51.151Z,46.3
2018-04-30T16:14:41.381Z,46.3
2018-04-30T16:15:30.888Z,46.3
2018-04-30T16:16:21.563Z,46.3
2018-04-30T16:17:11.064Z,46.3
2018-04-30T16:18:01.379Z,46.3
2018-04-30T16:18:50.853Z,46.3
2018-04-30T16:19:41.278Z,46.3
2018-04-30T16:20:31.164Z,46.2
2018-04-30T16:21:21.718Z,46.1
2018-04-30T16:22:11.693Z,46
2018-04-30T16:23:01.771Z,45.9
2018-04-30T16:23:51.556Z,45.8